aviador You're here:

LFSL Decoded Metar

BRIVE in FRANCE
Report Time2017-11-24 20:00:00
UTC Time2017-11-24 20:31:33
Flight Rules mvfr MVFR
Wind130° at 04 kt
W.Decomp.*RWY 11: 3.8 kt HW 1.4 kt RCW
W.Rank130° ranks 4
Current wind is below 130° avg. (5.3)
Visibility6000 m
Phenomena:Rain
Clouds:Scattered 011 Hf
Broken 036 Hf
Broken 045 Hf
Ceiling3,600 ft
Temp11°C (ISA -2)
Dew Point11°C (100% RH)
AAT9.9°C
QNH1015 hPa
Density Alt892 ft
Elevation1,016 ft
Report Wrong Elevation
Raw Report
LFSL 242000Z AUTO 13004KT 6000 SCT011 BKN036 BKN045 11/11 Q1015
TEMPO 3000 RA OVC004=

Extra information for LFSL:More info

Metar Taf Metar & Taf Last 4 Metars F.Rules Stats Wind Profile Meteogram Temp Stats Airport Information Weather charts Add Link Nearby VenuesMetar ALERT Operation Metar Decoded Social comments